sensor_id;sensor_type;location;lat;lon;timestamp;P1;durP1;ratioP1;P2;durP2;ratioP2
8626;SDS011;4351;51.422;6.794;2023-02-05T00:02:01;22.17;;;10.50;;
8626;SDS011;4351;51.422;6.794;2023-02-05T00:04:29;36.07;;;12.33;;
8626;SDS011;4351;51.422;6.794;2023-02-05T00:06:57;29.60;;;11.37;;
8626;SDS011;4351;51.422;6.794;2023-02-05T00:09:27;28.40;;;10.50;;
8626;SDS011;4351;51.422;6.794;2023-02-05T00:11:55;32.03;;;10.97;;
8626;SDS011;4351;51.422;6.794;2023-02-05T00:14:24;23.83;;;11.13;;
8626;SDS011;4351;51.422;6.794;2023-02-05T00:16:52;25.87;;;11.50;;
8626;SDS011;4351;51.422;6.794;2023-02-05T00:19:21;24.27;;;11.63;;
8626;SDS011;4351;51.422;6.794;2023-02-05T00:21:49;30.67;;;11.33;;
8626;SDS011;4351;51.422;6.794;2023-02-05T00:24:16;27.27;;;12.00;;
8626;SDS011;4351;51.422;6.794;2023-02-05T00:26:46;25.27;;;11.50;;
8626;SDS011;4351;51.422;6.794;2023-02-05T00:29:14;28.03;;;11.87;;
8626;SDS011;4351;51.422;6.794;2023-02-05T00:31:42;25.23;;;11.83;;
8626;SDS011;4351;51.422;6.794;2023-02-05T00:34:10;27.00;;;11.40;;
8626;SDS011;4351;51.422;6.794;2023-02-05T00:36:38;30.93;;;11.60;;
8626;SDS011;4351;51.422;6.794;2023-02-05T00:39:06;28.83;;;11.30;;
8626;SDS011;4351;51.422;6.794;2023-02-05T00:41:37;29.17;;;11.83;;
8626;SDS011;4351;51.422;6.794;2023-02-05T00:44:06;26.37;;;11.17;;
8626;SDS011;4351;51.422;6.794;2023-02-05T00:46:35;27.50;;;10.97;;
8626;SDS011;4351;51.422;6.794;2023-02-05T00:49:03;28.27;;;11.10;;
8626;SDS011;4351;51.422;6.794;2023-02-05T00:51:32;27.70;;;11.13;;
8626;SDS011;4351;51.422;6.794;2023-02-05T00:54:00;24.47;;;11.10;;
8626;SDS011;4351;51.422;6.794;2023-02-05T00:56:28;28.37;;;11.20;;
8626;SDS011;4351;51.422;6.794;2023-02-05T00:58:56;28.57;;;11.73;;
8626;SDS011;4351;51.422;6.794;2023-02-05T01:01:27;29.63;;;11.40;;
8626;SDS011;4351;51.422;6.794;2023-02-05T01:03:55;28.70;;;11.33;;
8626;SDS011;4351;51.422;6.794;2023-02-05T01:06:23;23.30;;;10.30;;
8626;SDS011;4351;51.422;6.794;2023-02-05T01:08:54;22.63;;;10.13;;
8626;SDS011;4351;51.422;6.794;2023-02-05T01:11:22;27.67;;;10.93;;
8626;SDS011;4351;51.422;6.794;2023-02-05T01:13:50;37.33;;;12.17;;
8626;SDS011;4351;51.422;6.794;2023-02-05T01:16:18;29.83;;;11.97;;
8626;SDS011;4351;51.422;6.794;2023-02-05T01:18:48;29.33;;;11.20;;
8626;SDS011;4351;51.422;6.794;2023-02-05T01:21:16;30.77;;;11.47;;
8626;SDS011;4351;51.422;6.794;2023-02-05T01:23:44;28.87;;;10.73;;
8626;SDS011;4351;51.422;6.794;2023-02-05T01:26:12;26.47;;;10.67;;
8626;SDS011;4351;51.422;6.794;2023-02-05T01:28:41;28.43;;;11.50;;
8626;SDS011;4351;51.422;6.794;2023-02-05T01:31:09;27.03;;;11.13;;
8626;SDS011;4351;51.422;6.794;2023-02-05T01:33:37;27.23;;;11.03;;
8626;SDS011;4351;51.422;6.794;2023-02-05T01:36:07;23.93;;;10.57;;
8626;SDS011;4351;51.422;6.794;2023-02-05T01:38:35;26.43;;;11.47;;
8626;SDS011;4351;51.422;6.794;2023-02-05T01:41:03;28.63;;;11.83;;
8626;SDS011;4351;51.422;6.794;2023-02-05T01:43:32;28.10;;;11.70;;
8626;SDS011;4351;51.422;6.794;2023-02-05T01:46:13;25.30;;;11.27;;
8626;SDS011;4351;51.422;6.794;2023-02-05T01:48:47;31.80;;;12.73;;
8626;SDS011;4351;51.422;6.794;2023-02-05T01:51:20;25.50;;;11.37;;
8626;SDS011;4351;51.422;6.794;2023-02-05T01:53:50;27.53;;;12.40;;
8626;SDS011;4351;51.422;6.794;2023-02-05T01:56:20;25.30;;;12.03;;
8626;SDS011;4351;51.422;6.794;2023-02-05T01:58:54;29.63;;;11.33;;
8626;SDS011;4351;51.422;6.794;2023-02-05T02:01:27;23.53;;;11.17;;
8626;SDS011;4351;51.422;6.794;2023-02-05T02:03:55;29.37;;;12.20;;
8626;SDS011;4351;51.422;6.794;2023-02-05T02:06:28;31.40;;;11.77;;
8626;SDS011;4351;51.422;6.794;2023-02-05T02:08:56;25.13;;;11.67;;
8626;SDS011;4351;51.422;6.794;2023-02-05T02:11:24;25.50;;;11.83;;
8626;SDS011;4351;51.422;6.794;2023-02-05T02:13:57;28.17;;;11.97;;
8626;SDS011;4351;51.422;6.794;2023-02-05T02:16:28;28.97;;;12.47;;
8626;SDS011;4351;51.422;6.794;2023-02-05T02:18:57;29.70;;;12.10;;
8626;SDS011;4351;51.422;6.794;2023-02-05T02:24:42;32.27;;;12.80;;
8626;SDS011;4351;51.422;6.794;2023-02-05T02:30:19;22.50;;;12.00;;
8626;SDS011;4351;51.422;6.794;2023-02-05T02:32:55;25.00;;;11.70;;
8626;SDS011;4351;51.422;6.794;2023-02-05T02:35:31;27.30;;;12.57;;
8626;SDS011;4351;51.422;6.794;2023-02-05T02:38:07;22.50;;;11.50;;
8626;SDS011;4351;51.422;6.794;2023-02-05T02:40:46;26.77;;;11.37;;
8626;SDS011;4351;51.422;6.794;2023-02-05T02:43:21;27.00;;;11.57;;
8626;SDS011;4351;51.422;6.794;2023-02-05T02:45:52;31.37;;;12.60;;
8626;SDS011;4351;51.422;6.794;2023-02-05T02:48:25;26.43;;;11.73;;
8626;SDS011;4351;51.422;6.794;2023-02-05T02:50:57;28.63;;;11.57;;
8626;SDS011;4351;51.422;6.794;2023-02-05T02:53:27;30.57;;;11.60;;
8626;SDS011;4351;51.422;6.794;2023-02-05T02:56:00;22.40;;;11.03;;
8626;SDS011;4351;51.422;6.794;2023-02-05T02:58:35;26.00;;;11.10;;
8626;SDS011;4351;51.422;6.794;2023-02-05T03:01:07;28.90;;;12.30;;
8626;SDS011;4351;51.422;6.794;2023-02-05T03:03:38;25.57;;;11.83;;
8626;SDS011;4351;51.422;6.794;2023-02-05T03:06:11;30.27;;;10.90;;
8626;SDS011;4351;51.422;6.794;2023-02-05T03:08:44;23.63;;;11.67;;
8626;SDS011;4351;51.422;6.794;2023-02-05T03:11:21;27.33;;;11.17;;
8626;SDS011;4351;51.422;6.794;2023-02-05T03:13:50;26.57;;;11.37;;
8626;SDS011;4351;51.422;6.794;2023-02-05T03:16:22;30.80;;;11.87;;
8626;SDS011;4351;51.422;6.794;2023-02-05T03:18:52;25.03;;;10.63;;
8626;SDS011;4351;51.422;6.794;2023-02-05T03:21:23;26.30;;;11.00;;
8626;SDS011;4351;51.422;6.794;2023-02-05T03:23:55;28.50;;;11.33;;
8626;SDS011;4351;51.422;6.794;2023-02-05T03:26:23;31.83;;;11.70;;
8626;SDS011;4351;51.422;6.794;2023-02-05T03:29:04;29.83;;;11.87;;
8626;SDS011;4351;51.422;6.794;2023-02-05T03:31:40;30.97;;;12.10;;
8626;SDS011;4351;51.422;6.794;2023-02-05T03:34:18;23.30;;;11.50;;
8626;SDS011;4351;51.422;6.794;2023-02-05T03:36:59;29.27;;;11.37;;
8626;SDS011;4351;51.422;6.794;2023-02-05T03:39:40;28.17;;;11.30;;
8626;SDS011;4351;51.422;6.794;2023-02-05T03:42:18;26.77;;;11.60;;
8626;SDS011;4351;51.422;6.794;2023-02-05T03:45:10;34.53;;;12.03;;
8626;SDS011;4351;51.422;6.794;2023-02-05T03:47:58;28.03;;;11.57;;
8626;SDS011;4351;51.422;6.794;2023-02-05T03:50:32;27.53;;;10.57;;
8626;SDS011;4351;51.422;6.794;2023-02-05T03:53:07;26.47;;;10.90;;
8626;SDS011;4351;51.422;6.794;2023-02-05T03:55:46;25.50;;;11.17;;
8626;SDS011;4351;51.422;6.794;2023-02-05T03:58:18;28.93;;;11.90;;
8626;SDS011;4351;51.422;6.794;2023-02-05T04:00:54;27.70;;;11.50;;
8626;SDS011;4351;51.422;6.794;2023-02-05T04:03:23;25.40;;;12.20;;
8626;SDS011;4351;51.422;6.794;2023-02-05T04:05:52;25.63;;;11.97;;
8626;SDS011;4351;51.422;6.794;2023-02-05T04:08:20;31.97;;;13.27;;
8626;SDS011;4351;51.422;6.794;2023-02-05T04:10:53;32.93;;;13.37;;
8626;SDS011;4351;51.422;6.794;2023-02-05T04:13:21;29.43;;;14.20;;
8626;SDS011;4351;51.422;6.794;2023-02-05T04:15:50;39.63;;;15.87;;
8626;SDS011;4351;51.422;6.794;2023-02-05T04:18:19;36.83;;;18.07;;
8626;SDS011;4351;51.422;6.794;2023-02-05T04:20:48;39.53;;;18.47;;
8626;SDS011;4351;51.422;6.794;2023-02-05T04:23:20;42.63;;;19.30;;
8626;SDS011;4351;51.422;6.794;2023-02-05T04:25:51;43.87;;;20.40;;
8626;SDS011;4351;51.422;6.794;2023-02-05T04:28:22;37.00;;;18.20;;
8626;SDS011;4351;51.422;6.794;2023-02-05T04:30:50;48.37;;;20.43;;
8626;SDS011;4351;51.422;6.794;2023-02-05T04:33:20;43.67;;;19.73;;
8626;SDS011;4351;51.422;6.794;2023-02-05T04:35:48;39.53;;;20.03;;
8626;SDS011;4351;51.422;6.794;2023-02-05T04:38:16;44.73;;;22.10;;
8626;SDS011;4351;51.422;6.794;2023-02-05T04:40:46;39.30;;;19.93;;
8626;SDS011;4351;51.422;6.794;2023-02-05T04:43:14;41.93;;;20.83;;
8626;SDS011;4351;51.422;6.794;2023-02-05T04:45:42;49.70;;;22.50;;
8626;SDS011;4351;51.422;6.794;2023-02-05T04:48:09;48.87;;;23.53;;
8626;SDS011;4351;51.422;6.794;2023-02-05T04:50:39;45.90;;;22.60;;
8626;SDS011;4351;51.422;6.794;2023-02-05T04:53:07;46.17;;;21.50;;
8626;SDS011;4351;51.422;6.794;2023-02-05T04:55:35;50.77;;;23.47;;
8626;SDS011;4351;51.422;6.794;2023-02-05T04:58:03;54.13;;;24.73;;
8626;SDS011;4351;51.422;6.794;2023-02-05T05:00:31;57.23;;;25.80;;
8626;SDS011;4351;51.422;6.794;2023-02-05T05:02:59;54.23;;;24.00;;
8626;SDS011;4351;51.422;6.794;2023-02-05T05:05:27;58.77;;;25.63;;
8626;SDS011;4351;51.422;6.794;2023-02-05T05:07:59;47.10;;;23.20;;
8626;SDS011;4351;51.422;6.794;2023-02-05T05:10:28;50.43;;;23.37;;
8626;SDS011;4351;51.422;6.794;2023-02-05T05:12:56;52.40;;;25.23;;
8626;SDS011;4351;51.422;6.794;2023-02-05T05:15:24;53.40;;;23.93;;
8626;SDS011;4351;51.422;6.794;2023-02-05T05:17:52;54.33;;;23.87;;
8626;SDS011;4351;51.422;6.794;2023-02-05T05:20:20;48.43;;;23.63;;
8626;SDS011;4351;51.422;6.794;2023-02-05T05:22:48;49.17;;;23.10;;
8626;SDS011;4351;51.422;6.794;2023-02-05T05:25:17;53.13;;;22.90;;
8626;SDS011;4351;51.422;6.794;2023-02-05T05:27:45;51.07;;;23.27;;
8626;SDS011;4351;51.422;6.794;2023-02-05T05:30:14;47.80;;;22.43;;
8626;SDS011;4351;51.422;6.794;2023-02-05T05:32:42;51.67;;;24.37;;
8626;SDS011;4351;51.422;6.794;2023-02-05T05:35:10;52.60;;;23.97;;
8626;SDS011;4351;51.422;6.794;2023-02-05T05:37:38;50.73;;;24.17;;
8626;SDS011;4351;51.422;6.794;2023-02-05T05:40:06;56.03;;;24.33;;
8626;SDS011;4351;51.422;6.794;2023-02-05T05:42:55;59.27;;;25.73;;
8626;SDS011;4351;51.422;6.794;2023-02-05T05:45:40;51.60;;;24.50;;
8626;SDS011;4351;51.422;6.794;2023-02-05T05:48:08;54.77;;;25.93;;
8626;SDS011;4351;51.422;6.794;2023-02-05T05:50:36;55.67;;;25.83;;
8626;SDS011;4351;51.422;6.794;2023-02-05T05:53:04;54.27;;;26.23;;
8626;SDS011;4351;51.422;6.794;2023-02-05T05:55:32;50.70;;;25.63;;
8626;SDS011;4351;51.422;6.794;2023-02-05T05:58:02;53.57;;;26.40;;
8626;SDS011;4351;51.422;6.794;2023-02-05T06:00:32;53.20;;;25.43;;
8626;SDS011;4351;51.422;6.794;2023-02-05T06:03:00;49.07;;;26.00;;
8626;SDS011;4351;51.422;6.794;2023-02-05T06:05:28;47.60;;;24.83;;
8626;SDS011;4351;51.422;6.794;2023-02-05T06:07:56;46.10;;;24.10;;
8626;SDS011;4351;51.422;6.794;2023-02-05T06:10:24;51.37;;;25.07;;
8626;SDS011;4351;51.422;6.794;2023-02-05T06:12:52;50.30;;;25.47;;
8626;SDS011;4351;51.422;6.794;2023-02-05T06:15:22;51.57;;;26.20;;
8626;SDS011;4351;51.422;6.794;2023-02-05T06:17:52;47.80;;;24.83;;
8626;SDS011;4351;51.422;6.794;2023-02-05T06:20:20;51.53;;;25.23;;
8626;SDS011;4351;51.422;6.794;2023-02-05T06:22:48;53.30;;;26.03;;
8626;SDS011;4351;51.422;6.794;2023-02-05T06:25:16;50.23;;;24.80;;
8626;SDS011;4351;51.422;6.794;2023-02-05T06:27:44;50.10;;;25.87;;
8626;SDS011;4351;51.422;6.794;2023-02-05T06:30:12;48.00;;;25.93;;
8626;SDS011;4351;51.422;6.794;2023-02-05T06:32:42;50.30;;;26.93;;
8626;SDS011;4351;51.422;6.794;2023-02-05T06:35:10;53.20;;;27.03;;
8626;SDS011;4351;51.422;6.794;2023-02-05T06:37:38;48.93;;;26.37;;
8626;SDS011;4351;51.422;6.794;2023-02-05T06:40:13;51.00;;;26.20;;
8626;SDS011;4351;51.422;6.794;2023-02-05T06:42:43;48.47;;;26.10;;
8626;SDS011;4351;51.422;6.794;2023-02-05T06:45:11;44.53;;;23.90;;
8626;SDS011;4351;51.422;6.794;2023-02-05T06:47:41;48.23;;;24.73;;
8626;SDS011;4351;51.422;6.794;2023-02-05T06:50:09;48.00;;;25.17;;
8626;SDS011;4351;51.422;6.794;2023-02-05T06:52:37;48.13;;;25.87;;
8626;SDS011;4351;51.422;6.794;2023-02-05T06:55:06;45.93;;;24.20;;
8626;SDS011;4351;51.422;6.794;2023-02-05T06:57:34;44.40;;;24.90;;
8626;SDS011;4351;51.422;6.794;2023-02-05T07:00:02;43.37;;;24.33;;
8626;SDS011;4351;51.422;6.794;2023-02-05T07:02:31;41.83;;;23.40;;
8626;SDS011;4351;51.422;6.794;2023-02-05T07:05:00;41.23;;;22.20;;
8626;SDS011;4351;51.422;6.794;2023-02-05T07:07:28;40.43;;;22.07;;
8626;SDS011;4351;51.422;6.794;2023-02-05T07:09:56;39.53;;;21.67;;
8626;SDS011;4351;51.422;6.794;2023-02-05T07:12:25;37.30;;;21.50;;
8626;SDS011;4351;51.422;6.794;2023-02-05T07:14:53;41.03;;;22.10;;
8626;SDS011;4351;51.422;6.794;2023-02-05T07:17:21;38.37;;;21.40;;
8626;SDS011;4351;51.422;6.794;2023-02-05T07:19:49;38.27;;;21.27;;
8626;SDS011;4351;51.422;6.794;2023-02-05T07:22:19;35.57;;;21.07;;
8626;SDS011;4351;51.422;6.794;2023-02-05T07:24:47;37.00;;;21.00;;
8626;SDS011;4351;51.422;6.794;2023-02-05T07:27:15;36.93;;;20.97;;
8626;SDS011;4351;51.422;6.794;2023-02-05T07:29:43;37.30;;;20.80;;
8626;SDS011;4351;51.422;6.794;2023-02-05T07:32:11;33.77;;;18.93;;
8626;SDS011;4351;51.422;6.794;2023-02-05T07:34:39;31.93;;;18.03;;
8626;SDS011;4351;51.422;6.794;2023-02-05T07:37:07;29.63;;;17.60;;
8626;SDS011;4351;51.422;6.794;2023-02-05T07:39:37;30.97;;;17.33;;
8626;SDS011;4351;51.422;6.794;2023-02-05T07:42:05;32.40;;;18.03;;
8626;SDS011;4351;51.422;6.794;2023-02-05T07:44:41;35.77;;;18.63;;
8626;SDS011;4351;51.422;6.794;2023-02-05T07:47:09;31.13;;;18.90;;
8626;SDS011;4351;51.422;6.794;2023-02-05T07:49:37;31.47;;;17.23;;
8626;SDS011;4351;51.422;6.794;2023-02-05T07:52:05;30.07;;;16.93;;
8626;SDS011;4351;51.422;6.794;2023-02-05T07:54:33;32.43;;;17.27;;
8626;SDS011;4351;51.422;6.794;2023-02-05T07:57:03;32.63;;;17.23;;
8626;SDS011;4351;51.422;6.794;2023-02-05T07:59:32;35.77;;;17.80;;
8626;SDS011;4351;51.422;6.794;2023-02-05T08:02:00;30.07;;;16.43;;
8626;SDS011;4351;51.422;6.794;2023-02-05T08:04:28;31.70;;;16.47;;
8626;SDS011;4351;51.422;6.794;2023-02-05T08:06:56;24.37;;;13.17;;
8626;SDS011;4351;51.422;6.794;2023-02-05T08:09:24;23.67;;;12.93;;
8626;SDS011;4351;51.422;6.794;2023-02-05T08:11:52;21.73;;;11.27;;
8626;SDS011;4351;51.422;6.794;2023-02-05T08:14:22;16.43;;;10.87;;
8626;SDS011;4351;51.422;6.794;2023-02-05T08:16:50;17.57;;;10.47;;
8626;SDS011;4351;51.422;6.794;2023-02-05T08:19:18;17.20;;;10.50;;
8626;SDS011;4351;51.422;6.794;2023-02-05T08:21:46;10.57;;;6.33;;
8626;SDS011;4351;51.422;6.794;2023-02-05T08:24:14;13.20;;;6.30;;
8626;SDS011;4351;51.422;6.794;2023-02-05T08:26:42;12.77;;;5.67;;
8626;SDS011;4351;51.422;6.794;2023-02-05T08:29:10;9.77;;;6.40;;
8626;SDS011;4351;51.422;6.794;2023-02-05T08:31:40;15.17;;;7.90;;
8626;SDS011;4351;51.422;6.794;2023-02-05T08:34:08;13.60;;;7.77;;
8626;SDS011;4351;51.422;6.794;2023-02-05T08:36:36;13.27;;;7.83;;
8626;SDS011;4351;51.422;6.794;2023-02-05T08:39:04;12.70;;;5.93;;
8626;SDS011;4351;51.422;6.794;2023-02-05T08:41:32;11.53;;;4.83;;
8626;SDS011;4351;51.422;6.794;2023-02-05T08:44:00;10.83;;;4.80;;
8626;SDS011;4351;51.422;6.794;2023-02-05T08:46:28;9.43;;;4.73;;
8626;SDS011;4351;51.422;6.794;2023-02-05T08:49:14;7.87;;;4.10;;
8626;SDS011;4351;51.422;6.794;2023-02-05T08:51:42;8.77;;;3.87;;
8626;SDS011;4351;51.422;6.794;2023-02-05T08:54:10;8.60;;;3.00;;
8626;SDS011;4351;51.422;6.794;2023-02-05T08:56:38;8.07;;;3.43;;
8626;SDS011;4351;51.422;6.794;2023-02-05T08:59:07;10.33;;;3.83;;
8626;SDS011;4351;51.422;6.794;2023-02-05T09:01:36;9.57;;;4.40;;
8626;SDS011;4351;51.422;6.794;2023-02-05T09:04:06;11.97;;;4.23;;
8626;SDS011;4351;51.422;6.794;2023-02-05T09:06:36;11.00;;;3.93;;
8626;SDS011;4351;51.422;6.794;2023-02-05T09:09:04;10.10;;;3.47;;
8626;SDS011;4351;51.422;6.794;2023-02-05T09:11:32;8.77;;;3.40;;
8626;SDS011;4351;51.422;6.794;2023-02-05T09:14:00;12.67;;;3.13;;
8626;SDS011;4351;51.422;6.794;2023-02-05T09:16:28;9.40;;;2.60;;
8626;SDS011;4351;51.422;6.794;2023-02-05T09:18:57;6.07;;;2.70;;
8626;SDS011;4351;51.422;6.794;2023-02-05T09:21:25;8.17;;;2.77;;
8626;SDS011;4351;51.422;6.794;2023-02-05T09:23:55;6.40;;;2.50;;
8626;SDS011;4351;51.422;6.794;2023-02-05T09:26:23;6.20;;;2.83;;
8626;SDS011;4351;51.422;6.794;2023-02-05T09:28:52;11.43;;;3.60;;
8626;SDS011;4351;51.422;6.794;2023-02-05T09:31:22;10.40;;;2.90;;
8626;SDS011;4351;51.422;6.794;2023-02-05T09:33:50;8.80;;;3.30;;
8626;SDS011;4351;51.422;6.794;2023-02-05T09:36:21;13.33;;;3.80;;
8626;SDS011;4351;51.422;6.794;2023-02-05T09:38:50;16.77;;;4.23;;
8626;SDS011;4351;51.422;6.794;2023-02-05T09:41:43;11.93;;;3.10;;
8626;SDS011;4351;51.422;6.794;2023-02-05T09:44:21;11.00;;;3.10;;
8626;SDS011;4351;51.422;6.794;2023-02-05T09:47:08;11.43;;;2.60;;
8626;SDS011;4351;51.422;6.794;2023-02-05T09:49:46;11.73;;;2.83;;
8626;SDS011;4351;51.422;6.794;2023-02-05T09:52:20;9.40;;;2.00;;
8626;SDS011;4351;51.422;6.794;2023-02-05T09:54:53;9.33;;;2.17;;
8626;SDS011;4351;51.422;6.794;2023-02-05T09:57:30;9.03;;;2.33;;
8626;SDS011;4351;51.422;6.794;2023-02-05T10:00:00;12.30;;;2.43;;
8626;SDS011;4351;51.422;6.794;2023-02-05T10:02:39;13.10;;;3.07;;
8626;SDS011;4351;51.422;6.794;2023-02-05T10:05:15;11.70;;;2.53;;
8626;SDS011;4351;51.422;6.794;2023-02-05T10:07:46;16.50;;;2.77;;
8626;SDS011;4351;51.422;6.794;2023-02-05T10:10:21;9.87;;;2.60;;
8626;SDS011;4351;51.422;6.794;2023-02-05T10:12:55;9.97;;;1.93;;
8626;SDS011;4351;51.422;6.794;2023-02-05T10:15:41;12.20;;;2.50;;
8626;SDS011;4351;51.422;6.794;2023-02-05T10:18:31;10.57;;;2.53;;
8626;SDS011;4351;51.422;6.794;2023-02-05T10:21:15;10.73;;;2.50;;
8626;SDS011;4351;51.422;6.794;2023-02-05T10:23:59;8.70;;;2.27;;
8626;SDS011;4351;51.422;6.794;2023-02-05T10:26:39;9.10;;;1.90;;
8626;SDS011;4351;51.422;6.794;2023-02-05T10:29:17;11.97;;;2.07;;
8626;SDS011;4351;51.422;6.794;2023-02-05T10:31:54;9.93;;;2.00;;
8626;SDS011;4351;51.422;6.794;2023-02-05T10:34:36;9.30;;;1.97;;
8626;SDS011;4351;51.422;6.794;2023-02-05T10:37:15;12.57;;;2.30;;
8626;SDS011;4351;51.422;6.794;2023-02-05T10:39:45;8.90;;;2.10;;
8626;SDS011;4351;51.422;6.794;2023-02-05T10:42:21;11.83;;;2.10;;
8626;SDS011;4351;51.422;6.794;2023-02-05T10:44:58;9.43;;;2.00;;
8626;SDS011;4351;51.422;6.794;2023-02-05T10:50:31;7.20;;;2.50;;
8626;SDS011;4351;51.422;6.794;2023-02-05T10:53:14;8.77;;;2.23;;
8626;SDS011;4351;51.422;6.794;2023-02-05T10:55:45;8.70;;;2.50;;
8626;SDS011;4351;51.422;6.794;2023-02-05T10:58:20;15.90;;;2.93;;
8626;SDS011;4351;51.422;6.794;2023-02-05T11:00:58;11.03;;;2.73;;
8626;SDS011;4351;51.422;6.794;2023-02-05T11:03:27;10.77;;;2.47;;
8626;SDS011;4351;51.422;6.794;2023-02-05T11:05:56;13.80;;;2.77;;
8626;SDS011;4351;51.422;6.794;2023-02-05T11:08:32;14.37;;;3.50;;
8626;SDS011;4351;51.422;6.794;2023-02-05T11:11:03;10.33;;;2.63;;
8626;SDS011;4351;51.422;6.794;2023-02-05T11:13:32;11.43;;;2.67;;
8626;SDS011;4351;51.422;6.794;2023-02-05T11:16:06;14.40;;;3.33;;
8626;SDS011;4351;51.422;6.794;2023-02-05T11:18:37;11.03;;;2.90;;
8626;SDS011;4351;51.422;6.794;2023-02-05T11:21:07;20.03;;;4.30;;
8626;SDS011;4351;51.422;6.794;2023-02-05T11:23:37;15.00;;;3.97;;
8626;SDS011;4351;51.422;6.794;2023-02-05T11:26:07;18.37;;;3.13;;
8626;SDS011;4351;51.422;6.794;2023-02-05T11:28:37;13.87;;;3.10;;
8626;SDS011;4351;51.422;6.794;2023-02-05T11:31:22;16.57;;;3.37;;
8626;SDS011;4351;51.422;6.794;2023-02-05T11:33:52;11.00;;;2.90;;
8626;SDS011;4351;51.422;6.794;2023-02-05T11:36:37;10.43;;;3.10;;
8626;SDS011;4351;51.422;6.794;2023-02-05T11:39:22;13.37;;;3.33;;
8626;SDS011;4351;51.422;6.794;2023-02-05T11:41:56;12.83;;;2.87;;
8626;SDS011;4351;51.422;6.794;2023-02-05T11:44:24;10.50;;;3.07;;
8626;SDS011;4351;51.422;6.794;2023-02-05T11:46:58;14.10;;;2.90;;
8626;SDS011;4351;51.422;6.794;2023-02-05T11:49:30;16.77;;;3.00;;
8626;SDS011;4351;51.422;6.794;2023-02-05T11:52:06;9.57;;;2.37;;
8626;SDS011;4351;51.422;6.794;2023-02-05T11:54:36;9.00;;;1.97;;
8626;SDS011;4351;51.422;6.794;2023-02-05T11:57:07;10.90;;;1.80;;
8626;SDS011;4351;51.422;6.794;2023-02-05T11:59:56;9.33;;;1.47;;
8626;SDS011;4351;51.422;6.794;2023-02-05T12:02:32;9.87;;;2.13;;
8626;SDS011;4351;51.422;6.794;2023-02-05T12:05:03;8.90;;;1.73;;
8626;SDS011;4351;51.422;6.794;2023-02-05T12:07:39;6.83;;;1.33;;
8626;SDS011;4351;51.422;6.794;2023-02-05T12:10:13;5.83;;;1.70;;
8626;SDS011;4351;51.422;6.794;2023-02-05T12:12:44;7.27;;;1.40;;
8626;SDS011;4351;51.422;6.794;2023-02-05T12:15:24;4.80;;;1.63;;
8626;SDS011;4351;51.422;6.794;2023-02-05T12:17:59;5.77;;;1.63;;
8626;SDS011;4351;51.422;6.794;2023-02-05T12:20:33;5.77;;;1.80;;
8626;SDS011;4351;51.422;6.794;2023-02-05T12:23:09;5.87;;;1.40;;
8626;SDS011;4351;51.422;6.794;2023-02-05T12:26:18;10.27;;;1.33;;
8626;SDS011;4351;51.422;6.794;2023-02-05T12:28:55;6.37;;;1.47;;
8626;SDS011;4351;51.422;6.794;2023-02-05T12:31:39;8.57;;;1.60;;
8626;SDS011;4351;51.422;6.794;2023-02-05T12:34:26;7.57;;;1.30;;
8626;SDS011;4351;51.422;6.794;2023-02-05T12:37:07;5.93;;;1.17;;
8626;SDS011;4351;51.422;6.794;2023-02-05T12:39:44;6.20;;;1.27;;
8626;SDS011;4351;51.422;6.794;2023-02-05T12:42:19;4.87;;;1.30;;
8626;SDS011;4351;51.422;6.794;2023-02-05T12:44:58;4.47;;;1.30;;
8626;SDS011;4351;51.422;6.794;2023-02-05T12:47:46;8.20;;;1.70;;
8626;SDS011;4351;51.422;6.794;2023-02-05T12:53:25;6.63;;;1.40;;
8626;SDS011;4351;51.422;6.794;2023-02-05T12:56:11;6.00;;;1.30;;
8626;SDS011;4351;51.422;6.794;2023-02-05T12:58:53;8.93;;;1.53;;
8626;SDS011;4351;51.422;6.794;2023-02-05T13:01:28;10.37;;;1.87;;
8626;SDS011;4351;51.422;6.794;2023-02-05T13:04:03;10.63;;;1.53;;
8626;SDS011;4351;51.422;6.794;2023-02-05T13:06:36;4.50;;;1.30;;
8626;SDS011;4351;51.422;6.794;2023-02-05T13:09:14;5.87;;;1.27;;
8626;SDS011;4351;51.422;6.794;2023-02-05T13:11:46;9.23;;;1.13;;
8626;SDS011;4351;51.422;6.794;2023-02-05T13:14:22;8.90;;;1.60;;
8626;SDS011;4351;51.422;6.794;2023-02-05T13:16:54;4.83;;;1.20;;
8626;SDS011;4351;51.422;6.794;2023-02-05T13:19:27;6.93;;;1.37;;
8626;SDS011;4351;51.422;6.794;2023-02-05T13:22:03;6.87;;;1.10;;
8626;SDS011;4351;51.422;6.794;2023-02-05T13:24:56;9.27;;;1.70;;
8626;SDS011;4351;51.422;6.794;2023-02-05T13:27:53;8.80;;;1.87;;
8626;SDS011;4351;51.422;6.794;2023-02-05T13:30:42;8.33;;;1.50;;
8626;SDS011;4351;51.422;6.794;2023-02-05T13:33:16;4.43;;;1.30;;
8626;SDS011;4351;51.422;6.794;2023-02-05T13:35:46;7.47;;;1.73;;
8626;SDS011;4351;51.422;6.794;2023-02-05T13:38:29;5.87;;;1.10;;
8626;SDS011;4351;51.422;6.794;2023-02-05T13:41:16;8.30;;;1.40;;
8626;SDS011;4351;51.422;6.794;2023-02-05T13:47:16;10.53;;;1.37;;
8626;SDS011;4351;51.422;6.794;2023-02-05T13:50:03;4.50;;;1.20;;
8626;SDS011;4351;51.422;6.794;2023-02-05T13:52:54;6.70;;;1.20;;
8626;SDS011;4351;51.422;6.794;2023-02-05T13:55:36;8.17;;;1.27;;
8626;SDS011;4351;51.422;6.794;2023-02-05T13:58:20;7.57;;;1.70;;
8626;SDS011;4351;51.422;6.794;2023-02-05T14:00:51;6.93;;;1.60;;
8626;SDS011;4351;51.422;6.794;2023-02-05T14:03:29;7.87;;;1.30;;
8626;SDS011;4351;51.422;6.794;2023-02-05T14:06:15;8.87;;;1.37;;
8626;SDS011;4351;51.422;6.794;2023-02-05T14:08:48;3.97;;;1.20;;
8626;SDS011;4351;51.422;6.794;2023-02-05T14:11:20;5.23;;;1.50;;
8626;SDS011;4351;51.422;6.794;2023-02-05T14:16:54;9.33;;;1.67;;
8626;SDS011;4351;51.422;6.794;2023-02-05T14:19:24;5.33;;;1.50;;
8626;SDS011;4351;51.422;6.794;2023-02-05T14:22:31;8.73;;;1.60;;
8626;SDS011;4351;51.422;6.794;2023-02-05T14:25:01;8.83;;;1.60;;
8626;SDS011;4351;51.422;6.794;2023-02-05T14:33:30;9.63;;;1.60;;
8626;SDS011;4351;51.422;6.794;2023-02-05T14:38:55;10.53;;;1.70;;
8626;SDS011;4351;51.422;6.794;2023-02-05T14:41:28;7.83;;;1.80;;
8626;SDS011;4351;51.422;6.794;2023-02-05T14:44:01;11.17;;;1.97;;
8626;SDS011;4351;51.422;6.794;2023-02-05T14:46:32;8.77;;;1.87;;
8626;SDS011;4351;51.422;6.794;2023-02-05T14:49:05;14.63;;;2.30;;
8626;SDS011;4351;51.422;6.794;2023-02-05T14:51:48;10.80;;;2.13;;
8626;SDS011;4351;51.422;6.794;2023-02-05T14:54:19;10.73;;;2.07;;
8626;SDS011;4351;51.422;6.794;2023-02-05T14:56:50;14.40;;;2.47;;
8626;SDS011;4351;51.422;6.794;2023-02-05T14:59:23;13.07;;;2.53;;
8626;SDS011;4351;51.422;6.794;2023-02-05T15:01:54;9.60;;;2.13;;
8626;SDS011;4351;51.422;6.794;2023-02-05T15:04:24;11.00;;;2.30;;
8626;SDS011;4351;51.422;6.794;2023-02-05T15:07:05;11.50;;;2.37;;
8626;SDS011;4351;51.422;6.794;2023-02-05T15:09:38;14.60;;;1.93;;
8626;SDS011;4351;51.422;6.794;2023-02-05T15:15:01;11.00;;;2.10;;
8626;SDS011;4351;51.422;6.794;2023-02-05T15:17:54;13.13;;;2.13;;
8626;SDS011;4351;51.422;6.794;2023-02-05T15:20:25;14.17;;;2.13;;
8626;SDS011;4351;51.422;6.794;2023-02-05T15:23:00;15.50;;;2.33;;
8626;SDS011;4351;51.422;6.794;2023-02-05T15:25:33;15.00;;;2.00;;
8626;SDS011;4351;51.422;6.794;2023-02-05T15:28:12;16.43;;;2.70;;
8626;SDS011;4351;51.422;6.794;2023-02-05T15:30:49;12.07;;;2.20;;
8626;SDS011;4351;51.422;6.794;2023-02-05T15:33:24;15.07;;;2.37;;
8626;SDS011;4351;51.422;6.794;2023-02-05T15:35:59;12.57;;;2.60;;
8626;SDS011;4351;51.422;6.794;2023-02-05T15:38:34;12.67;;;2.63;;
8626;SDS011;4351;51.422;6.794;2023-02-05T15:41:10;13.07;;;2.57;;
8626;SDS011;4351;51.422;6.794;2023-02-05T15:43:55;11.50;;;2.60;;
8626;SDS011;4351;51.422;6.794;2023-02-05T15:46:25;15.87;;;2.53;;
8626;SDS011;4351;51.422;6.794;2023-02-05T15:48:55;10.33;;;2.23;;
8626;SDS011;4351;51.422;6.794;2023-02-05T15:51:26;14.67;;;2.37;;
8626;SDS011;4351;51.422;6.794;2023-02-05T15:53:57;17.40;;;2.93;;
8626;SDS011;4351;51.422;6.794;2023-02-05T15:56:28;22.53;;;2.80;;
8626;SDS011;4351;51.422;6.794;2023-02-05T15:59:01;13.93;;;2.43;;
8626;SDS011;4351;51.422;6.794;2023-02-05T16:01:34;20.93;;;3.10;;